createdAt,value
2022-11-06T00:02:59.571Z,104396.66
2022-11-06T00:08:03.401Z,104683.81
2022-11-06T00:13:08.633Z,104663.00
2022-11-06T00:18:12.352Z,104606.84
2022-11-06T00:23:16.135Z,104794.13
2022-11-06T00:28:20.994Z,104935.63
2022-11-06T00:33:24.614Z,104904.41
2022-11-06T00:38:28.257Z,105118.78
2022-11-06T00:43:33.659Z,105043.84
2022-11-06T00:48:38.318Z,105154.16
2022-11-06T00:53:42.545Z,105079.22
2022-11-06T00:58:48.875Z,105256.13
2022-11-06T01:03:54.870Z,105125.00
2022-11-06T01:08:58.998Z,105318.56
2022-11-06T01:14:05.421Z,105408.06
2022-11-06T01:19:09.544Z,105312.31
2022-11-06T01:24:14.714Z,105331.06
2022-11-06T01:29:21.061Z,105208.25
2022-11-06T01:34:24.645Z,105358.13
2022-11-06T01:39:28.212Z,105308.16
2022-11-06T01:45:18.458Z,105276.94
2022-11-06T01:50:23.803Z,105337.31
2022-11-06T01:55:30.937Z,105254.03
2022-11-06T02:00:34.903Z,105299.84
2022-11-06T02:05:40.465Z,105424.72
2022-11-06T02:10:44.313Z,105512.13
2022-11-06T02:15:52.978Z,105672.41
2022-11-06T02:21:27.164Z,105595.38
2022-11-06T02:26:53.440Z,105909.69
2022-11-06T02:31:59.818Z,105872.22
2022-11-06T02:37:08.445Z,105820.19
2022-11-06T02:42:17.260Z,105863.91
2022-11-06T02:47:23.387Z,106013.78
2022-11-06T02:52:32.416Z,105899.28
2022-11-06T02:57:43.624Z,106244.84
2022-11-06T03:02:49.908Z,105924.28
2022-11-06T03:07:59.277Z,105913.84
2022-11-06T03:13:17.157Z,105799.38
2022-11-06T03:18:28.934Z,105799.38
2022-11-06T03:23:37.973Z,105666.16
2022-11-06T03:28:52.390Z,105705.72
2022-11-06T03:34:00.034Z,105795.22
2022-11-06T03:39:07.356Z,105387.25
2022-11-06T03:44:15.987Z,105160.41
2022-11-06T03:49:24.288Z,105243.66
2022-11-06T03:54:30.844Z,105120.84
2022-11-06T03:59:41.966Z,104987.66
2022-11-06T04:04:50.598Z,105091.72
2022-11-06T04:10:15.978Z,104987.66
2022-11-06T04:15:22.652Z,104856.56
2022-11-06T04:20:50.573Z,104987.66
2022-11-06T04:26:24.067Z,105177.03
2022-11-06T04:31:38.368Z,104948.13
2022-11-06T04:36:47.896Z,105095.88
2022-11-06T04:42:02.311Z,105045.94
2022-11-06T04:47:10.014Z,104896.09
2022-11-06T04:52:17.667Z,104954.34
2022-11-06T04:57:21.215Z,105075.06
2022-11-06T05:02:26.171Z,105083.38
2022-11-06T05:07:29.695Z,104939.78
2022-11-06T05:12:33.192Z,104740.00
2022-11-06T05:17:38.066Z,105041.75
2022-11-06T05:23:00.580Z,105075.06
2022-11-06T05:28:07.102Z,105162.47
2022-11-06T05:33:11.959Z,105052.16
2022-11-06T05:38:15.676Z,105320.66
2022-11-06T05:43:19.447Z,105216.59
2022-11-06T05:48:24.324Z,105428.88
2022-11-06T05:53:27.886Z,105557.91
2022-11-06T05:58:31.508Z,105241.56
2022-11-06T06:03:36.325Z,105287.34
2022-11-06T06:08:39.851Z,105397.66
2022-11-06T06:13:43.345Z,105537.09
2022-11-06T06:18:50.104Z,105535.03
2022-11-06T06:23:53.583Z,105582.91
2022-11-06T06:28:57.062Z,105472.59
2022-11-06T06:34:01.966Z,105622.44
2022-11-06T06:39:05.431Z,105453.84
2022-11-06T06:44:08.909Z,105453.84
2022-11-06T06:49:14.026Z,105591.22
2022-11-06T06:54:17.693Z,105347.72
2022-11-06T06:59:21.187Z,105272.78
2022-11-06T07:04:26.203Z,105470.50
2022-11-06T07:09:31.997Z,105416.38
2022-11-06T07:14:35.519Z,105453.84
2022-11-06T07:19:40.432Z,105347.72
2022-11-06T07:24:43.912Z,105345.63
2022-11-06T07:29:47.431Z,105264.47
2022-11-06T07:34:52.347Z,105372.69
2022-11-06T07:39:58.033Z,105070.91
2022-11-06T07:45:01.679Z,105150.00
2022-11-06T07:50:07.600Z,105012.63
2022-11-06T07:55:11.260Z,104577.69
2022-11-06T08:00:16.075Z,104504.88
2022-11-06T08:05:21.856Z,104171.94
2022-11-06T08:10:25.551Z,104182.34
2022-11-06T08:15:29.088Z,103934.75
2022-11-06T08:20:33.970Z,103655.97
2022-11-06T08:25:38.135Z,103714.22
2022-11-06T08:30:41.649Z,103329.34
2022-11-06T08:35:46.661Z,102994.44
2022-11-06T08:40:53.663Z,102767.72
2022-11-06T08:45:57.653Z,102339.25
2022-11-06T08:51:02.901Z,102056.44
2022-11-06T08:56:07.242Z,101729.94
2022-11-06T09:01:11.684Z,101546.94
2022-11-06T09:06:16.891Z,101208.03
2022-11-06T09:11:20.435Z,100908.66
2022-11-06T09:16:24.756Z,100600.97
2022-11-06T09:21:29.764Z,100276.66
2022-11-06T09:26:33.403Z,100172.72
2022-11-06T09:31:37.024Z,99896.28
2022-11-06T09:36:41.953Z,99432.81
2022-11-06T09:41:54.902Z,95770.47
2022-11-06T09:47:01.747Z,95787.09
2022-11-06T09:52:12.449Z,95417.50
2022-11-06T09:57:20.606Z,94593.34
2022-11-06T10:02:31.970Z,94304.81
2022-11-06T10:07:40.900Z,29349.06
2022-11-06T10:13:01.516Z,3647.59
2022-11-06T10:18:14.511Z,-6724.56
2022-11-06T10:23:26.700Z,-11124.28
2022-11-06T10:28:45.079Z,-11124.28
2022-11-06T10:33:58.134Z,-11124.28
2022-11-06T10:39:05.842Z,-11124.28
2022-11-06T10:44:19.711Z,-11124.28
2022-11-06T10:49:31.747Z,-11124.28
2022-11-06T10:54:49.452Z,-11124.28
2022-11-06T10:59:53.872Z,-11124.28
2022-11-06T11:04:58.369Z,-11124.28
2022-11-06T11:10:28.435Z,-11124.28
2022-11-06T11:15:34.871Z,-11124.28
2022-11-06T11:20:40.373Z,-11124.28
2022-11-06T11:25:47.924Z,-11124.28
2022-11-06T11:30:56.434Z,-11124.28
2022-11-06T11:36:00.348Z,-11124.28
2022-11-06T11:41:12.902Z,-11124.28
2022-11-06T11:46:20.917Z,-11124.28
2022-11-06T11:51:30.983Z,-11124.28
2022-11-06T11:57:03.496Z,-11124.28
2022-11-06T12:02:20.935Z,-11124.28
2022-11-06T12:07:29.999Z,-11124.28
2022-11-06T12:12:35.866Z,-11124.28
2022-11-06T12:17:41.561Z,-11124.28
2022-11-06T12:22:48.903Z,-11124.28
2022-11-06T12:27:56.658Z,-11124.28
2022-11-06T12:33:11.579Z,-11124.28
2022-11-06T12:38:29.015Z,-11124.28
2022-11-06T12:43:41.519Z,-11124.28
2022-11-06T12:49:05.134Z,-11124.28
2022-11-06T12:54:26.931Z,-11124.28
2022-11-06T12:59:44.181Z,-11124.28
2022-11-06T13:04:56.526Z,-11124.28
2022-11-06T13:10:16.040Z,-11124.28
2022-11-06T13:15:32.293Z,-11124.28
2022-11-06T13:20:46.057Z,-11124.28
2022-11-06T13:25:56.046Z,-11124.28
2022-11-06T13:31:04.358Z,-11124.28
2022-11-06T13:36:09.191Z,-11124.28
2022-11-06T13:41:17.010Z,-11124.28
2022-11-06T13:46:30.806Z,-11124.28
2022-11-06T13:51:43.148Z,-11124.28
2022-11-06T13:57:13.152Z,-11124.28
2022-11-06T14:02:51.400Z,-11124.28
2022-11-06T14:07:56.339Z,-11124.28
2022-11-06T14:13:00.100Z,-11124.28
2022-11-06T14:18:06.527Z,-11124.28
2022-11-06T14:23:47.457Z,-11124.28
2022-11-06T14:28:51.174Z,-11124.28
2022-11-06T14:34:05.337Z,-11124.28
2022-11-06T14:39:12.274Z,-11124.28
2022-11-06T14:44:48.355Z,-11124.28
2022-11-06T14:49:56.365Z,-11124.28
2022-11-06T14:55:05.375Z,-11124.28
2022-11-06T15:00:15.370Z,-11124.28
2022-11-06T15:05:21.359Z,-11124.28
2022-11-06T15:10:52.089Z,-11124.28
2022-11-06T15:15:59.672Z,-11124.28
2022-11-06T15:21:09.636Z,-11124.28
2022-11-06T15:26:26.671Z,-11124.28
2022-11-06T15:31:31.947Z,-11641.56
2022-11-06T15:36:41.260Z,-13710.00
2022-11-06T15:41:45.597Z,-14743.78
2022-11-06T15:46:56.538Z,-15260.56
2022-11-06T15:52:03.235Z,-15262.09
2022-11-06T15:57:16.954Z,-15262.09
2022-11-06T16:02:22.848Z,-15262.09
2022-11-06T16:07:29.523Z,-15262.09
2022-11-06T16:12:33.282Z,-13968.47
2022-11-06T16:17:36.948Z,-12417.34
2022-11-06T16:22:42.904Z,20922.63
2022-11-06T16:27:46.567Z,71141.06
2022-11-06T16:32:50.640Z,101779.84
2022-11-06T16:38:12.718Z,102177.03
2022-11-06T16:43:21.283Z,102688.69
2022-11-06T16:48:31.817Z,103647.63
2022-11-06T16:54:00.582Z,104375.84
2022-11-06T16:59:07.418Z,104837.81
2022-11-06T17:04:20.917Z,105193.69
2022-11-06T17:09:32.090Z,105341.47
2022-11-06T17:14:35.578Z,106199.03
2022-11-06T17:19:39.112Z,106715.34
2022-11-06T17:24:44.217Z,107269.19
2022-11-06T17:29:47.892Z,107775.22
2022-11-06T17:34:51.576Z,107818.97
2022-11-06T17:39:56.591Z,107962.66
2022-11-06T17:45:00.273Z,108229.25
2022-11-06T17:50:04.514Z,108281.31
2022-11-06T17:55:10.233Z,108743.72
2022-11-06T18:00:14.482Z,109168.69
2022-11-06T18:05:18.508Z,109491.59
2022-11-06T18:10:28.965Z,109533.28
2022-11-06T18:15:35.118Z,110027.06
2022-11-06T18:20:45.180Z,109962.47
2022-11-06T18:25:56.665Z,110233.38
2022-11-06T18:31:00.720Z,110114.59
2022-11-06T18:36:06.098Z,109981.22
2022-11-06T18:41:13.088Z,110012.50
2022-11-06T18:46:18.865Z,110033.31
2022-11-06T18:51:34.661Z,110056.25
2022-11-06T18:56:40.440Z,109922.88
2022-11-06T19:01:44.113Z,109877.06
2022-11-06T19:06:47.807Z,109602.03
2022-11-06T19:11:52.918Z,109191.59
2022-11-06T19:16:56.508Z,109397.84
2022-11-06T19:22:00.323Z,109522.84
2022-11-06T19:27:05.469Z,109491.59
2022-11-06T19:32:09.079Z,109335.34
2022-11-06T19:37:12.696Z,109322.84
2022-11-06T19:42:17.707Z,109097.84
2022-11-06T19:47:21.359Z,109539.53
2022-11-06T19:52:42.158Z,109645.78
2022-11-06T19:57:49.367Z,109693.69
2022-11-06T20:02:53.025Z,110212.53
2022-11-06T20:07:56.721Z,110445.91
2022-11-06T20:13:02.091Z,110839.78
2022-11-06T20:18:06.087Z,111064.88
2022-11-06T20:23:09.894Z,111075.31
2022-11-06T20:28:14.783Z,111340.00
2022-11-06T20:33:18.977Z,111569.28
2022-11-06T20:38:22.572Z,110864.81
2022-11-06T20:43:27.782Z,110577.22
2022-11-06T20:48:32.946Z,110841.88
2022-11-06T20:53:37.223Z,111187.84
2022-11-06T20:58:42.264Z,111204.53
2022-11-06T21:03:46.678Z,111185.78
2022-11-06T21:08:50.369Z,111479.66
2022-11-06T21:13:55.807Z,111348.34
2022-11-06T21:19:00.543Z,111410.88
2022-11-06T21:24:05.007Z,111502.59
2022-11-06T21:29:12.288Z,112257.25
2022-11-06T21:34:15.922Z,112261.41
2022-11-06T21:39:21.458Z,112236.38
2022-11-06T21:44:26.495Z,112401.09
2022-11-06T21:49:30.206Z,112232.22
2022-11-06T21:54:51.155Z,112407.34
2022-11-06T21:59:56.050Z,112384.41
2022-11-06T22:04:59.651Z,112444.88
2022-11-06T22:10:03.331Z,112557.47
2022-11-06T22:15:09.749Z,112451.13
2022-11-06T22:20:13.598Z,112624.19
2022-11-06T22:25:17.206Z,112503.25
2022-11-06T22:30:22.094Z,112307.28
2022-11-06T22:35:25.658Z,112444.88
2022-11-06T22:40:29.171Z,112288.50
2022-11-06T22:45:34.109Z,112123.81
2022-11-06T22:50:37.868Z,112363.56
2022-11-06T22:55:41.332Z,112236.38
2022-11-06T23:00:49.758Z,112405.25
2022-11-06T23:05:53.229Z,112457.38
2022-11-06T23:10:57.373Z,112778.47
2022-11-06T23:16:05.735Z,112886.91
2022-11-06T23:21:13.858Z,112576.22
2022-11-06T23:26:19.699Z,112972.41
2022-11-06T23:31:24.711Z,112688.81
2022-11-06T23:36:28.209Z,112357.31
2022-11-06T23:41:46.730Z,112432.38
2022-11-06T23:46:52.981Z,112603.34
2022-11-06T23:51:56.679Z,112567.88
2022-11-06T23:57:00.210Z,112784.72
